createdAt,value
2018-10-03T00:00:01.333Z,72.28
2018-10-03T00:02:31.135Z,71.42
2018-10-03T00:05:02.008Z,71.38
2018-10-03T00:07:32.448Z,71.46
2018-10-03T00:10:02.570Z,71.83
2018-10-03T00:12:32.093Z,71.42
2018-10-03T00:15:02.033Z,71.65
2018-10-03T00:17:33.088Z,70.89
2018-10-03T00:20:03.491Z,71.07
2018-10-03T00:22:34.579Z,70.84
2018-10-03T00:25:04.897Z,71.48
2018-10-03T00:27:34.711Z,71.06
2018-10-03T00:30:05.113Z,70.60
2018-10-03T00:32:35.819Z,70.93
2018-10-03T00:35:05.379Z,71.58
2018-10-03T00:37:35.367Z,72.28
2018-10-03T00:40:05.310Z,71.25
2018-10-03T00:42:35.116Z,71.67
2018-10-03T00:45:05.118Z,71.77
2018-10-03T00:47:35.489Z,71.53
2018-10-03T00:50:05.543Z,71.94
2018-10-03T00:52:35.248Z,71.93
2018-10-03T00:55:05.949Z,72.00
2018-10-03T00:57:35.572Z,71.79
2018-10-03T01:00:06.234Z,72.32
2018-10-03T01:02:36.052Z,72.16
2018-10-03T01:05:05.908Z,72.47
2018-10-03T01:07:35.924Z,72.23
2018-10-03T01:10:06.467Z,72.85
2018-10-03T01:12:37.145Z,72.50
2018-10-03T01:15:07.806Z,72.59
2018-10-03T01:17:37.576Z,72.79
2018-10-03T01:20:07.458Z,72.53
2018-10-03T01:22:37.435Z,72.84
2018-10-03T01:25:08.338Z,72.55
2018-10-03T01:27:37.955Z,72.97
2018-10-03T01:30:08.287Z,73.01
2018-10-03T01:32:38.006Z,72.68
2018-10-03T01:35:08.679Z,72.21
2018-10-03T01:37:39.407Z,72.35
2018-10-03T01:40:09.189Z,72.65
2018-10-03T01:42:39.894Z,72.76
2018-10-03T01:45:10.996Z,72.19
2018-10-03T01:47:41.000Z,72.58
2018-10-03T01:50:12.004Z,72.36
2018-10-03T01:52:42.452Z,71.97
2018-10-03T01:55:12.458Z,72.20
2018-10-03T01:57:42.499Z,71.94
2018-10-03T02:00:12.866Z,71.95
2018-10-03T02:02:43.164Z,71.07
2018-10-03T02:05:13.272Z,71.51
2018-10-03T02:07:43.032Z,70.93
2018-10-03T02:10:13.073Z,71.40
2018-10-03T02:12:42.761Z,71.25
2018-10-03T02:15:13.857Z,71.30
2018-10-03T02:17:43.851Z,71.07
2018-10-03T02:20:14.718Z,71.92
2018-10-03T02:22:45.260Z,71.95
2018-10-03T02:25:15.194Z,72.21
2018-10-03T02:27:45.190Z,72.30
2018-10-03T02:30:15.252Z,72.55
2018-10-03T02:32:45.209Z,72.08
2018-10-03T02:35:16.378Z,71.58
2018-10-03T02:37:47.301Z,72.20
2018-10-03T02:40:18.360Z,71.98
2018-10-03T02:42:48.439Z,71.36
2018-10-03T02:45:21.504Z,71.10
2018-10-03T02:47:53.020Z,69.47
2018-10-03T02:50:23.770Z,69.77
2018-10-03T02:52:54.275Z,69.07
2018-10-03T02:55:24.725Z,69.22
2018-10-03T02:57:55.240Z,68.85
2018-10-03T03:00:25.392Z,68.25
2018-10-03T03:02:55.494Z,68.59
2018-10-03T03:05:25.326Z,68.18
2018-10-03T03:07:55.740Z,68.11
2018-10-03T03:10:26.088Z,67.79
2018-10-03T03:12:55.742Z,67.20
2018-10-03T03:15:26.695Z,66.17
2018-10-03T03:17:56.589Z,65.71
2018-10-03T03:20:27.245Z,64.42
2018-10-03T03:22:57.902Z,64.21
2018-10-03T03:25:27.557Z,64.53
2018-10-03T03:27:57.696Z,64.22
2018-10-03T03:30:29.037Z,63.84
2018-10-03T03:32:59.556Z,63.72
2018-10-03T03:35:30.133Z,63.90
2018-10-03T03:38:00.066Z,63.77
2018-10-03T03:40:29.793Z,63.53
2018-10-03T03:42:59.890Z,63.50
2018-10-03T03:45:29.637Z,63.54
2018-10-03T03:47:59.713Z,63.17
2018-10-03T03:51:54.329Z,63.03
2018-10-03T03:54:24.263Z,63.14
2018-10-03T03:56:55.678Z,63.38
2018-10-03T03:59:25.529Z,63.71
2018-10-03T04:01:55.465Z,63.59
2018-10-03T04:04:25.730Z,63.48
2018-10-03T04:06:55.849Z,63.66
2018-10-03T04:09:25.725Z,63.88
2018-10-03T04:11:55.827Z,64.18
2018-10-03T04:14:26.550Z,64.01
2018-10-03T04:16:56.099Z,63.98
2018-10-03T04:19:26.428Z,63.53
2018-10-03T04:21:56.440Z,63.71
2018-10-03T04:24:26.884Z,63.10
2018-10-03T04:26:57.810Z,63.16
2018-10-03T04:29:28.312Z,62.96
2018-10-03T04:31:58.368Z,62.92
2018-10-03T04:34:28.950Z,63.12
2018-10-03T04:36:58.951Z,62.78
2018-10-03T04:39:29.580Z,62.04
2018-10-03T04:41:59.753Z,62.16
2018-10-03T04:44:29.520Z,61.75
2018-10-03T04:47:00.204Z,62.34
2018-10-03T04:49:30.733Z,62.58
2018-10-03T04:52:00.468Z,62.67
2018-10-03T04:54:30.399Z,63.14
2018-10-03T04:57:00.446Z,62.78
2018-10-03T04:59:30.021Z,63.12
2018-10-03T05:01:59.819Z,62.93
2018-10-03T05:04:30.029Z,62.69
2018-10-03T05:06:59.796Z,63.00
2018-10-03T05:09:29.493Z,62.99
2018-10-03T05:11:59.555Z,62.29
2018-10-03T05:14:29.971Z,62.92
2018-10-03T05:16:59.990Z,62.96
2018-10-03T05:19:29.588Z,62.79
2018-10-03T05:21:59.051Z,62.20
2018-10-03T05:24:29.341Z,62.21
2018-10-03T05:27:00.009Z,62.20
2018-10-03T05:29:30.577Z,62.33
2018-10-03T05:32:03.640Z,61.90
2018-10-03T05:34:33.388Z,62.38
2018-10-03T05:37:04.375Z,61.79
2018-10-03T05:39:34.347Z,61.41
2018-10-03T05:42:04.200Z,62.03
2018-10-03T05:44:35.441Z,62.09
2018-10-03T05:47:05.574Z,62.15
2018-10-03T05:49:35.381Z,61.63
2018-10-03T05:52:06.396Z,61.85
2018-10-03T05:54:36.241Z,62.09
2018-10-03T05:57:06.257Z,61.21
2018-10-03T05:59:36.398Z,61.34
2018-10-03T06:02:06.920Z,62.18
2018-10-03T06:04:36.995Z,61.27
2018-10-03T06:07:08.044Z,61.56
2018-10-03T06:09:38.615Z,61.35
2018-10-03T06:12:08.662Z,62.20
2018-10-03T06:14:39.101Z,61.58
2018-10-03T06:17:09.781Z,61.86
2018-10-03T06:19:39.388Z,61.99
2018-10-03T06:22:10.339Z,62.11
2018-10-03T06:24:41.200Z,61.69
2018-10-03T06:27:13.258Z,61.53
2018-10-03T06:29:45.772Z,61.82
2018-10-03T06:32:16.631Z,61.44
2018-10-03T06:34:46.484Z,61.49
2018-10-03T06:37:17.747Z,61.38
2018-10-03T06:39:47.739Z,60.82
2018-10-03T06:42:17.247Z,60.92
2018-10-03T06:44:47.937Z,60.97
2018-10-03T06:47:17.739Z,60.85
2018-10-03T06:49:47.380Z,61.13
2018-10-03T06:52:18.454Z,60.63
2018-10-03T06:54:50.491Z,60.49
2018-10-03T06:57:21.441Z,60.04
2018-10-03T06:59:51.033Z,60.50
2018-10-03T07:02:22.851Z,60.10
2018-10-03T07:04:53.012Z,59.50
2018-10-03T07:07:22.724Z,60.05
2018-10-03T07:09:52.643Z,59.89
2018-10-03T07:12:56.096Z,58.74
2018-10-03T07:15:27.662Z,58.75
2018-10-03T07:17:59.607Z,58.66
2018-10-03T07:20:29.733Z,57.99
2018-10-03T07:22:59.884Z,58.66
2018-10-03T07:25:30.559Z,58.12
2018-10-03T07:28:00.476Z,57.09
2018-10-03T07:30:30.992Z,56.77
2018-10-03T07:33:00.671Z,57.26
2018-10-03T07:35:30.996Z,57.22
2018-10-03T07:38:03.738Z,56.90
2018-10-03T07:40:34.390Z,56.65
2018-10-03T07:43:07.241Z,56.59
2018-10-03T07:45:40.508Z,55.84
2018-10-03T07:48:10.731Z,56.62
2018-10-03T07:50:43.594Z,56.71
2018-10-03T07:53:14.086Z,57.11
2018-10-03T07:55:44.142Z,57.79
2018-10-03T07:58:16.745Z,57.10
2018-10-03T08:00:48.070Z,56.89
2018-10-03T08:03:20.411Z,56.42
2018-10-03T08:05:57.184Z,56.77
2018-10-03T08:08:27.417Z,56.23
2018-10-03T08:10:58.331Z,56.29
2018-10-03T08:13:28.178Z,56.49
2018-10-03T08:16:00.671Z,56.55
2018-10-03T08:18:30.402Z,56.39
2018-10-03T08:21:00.224Z,56.21
2018-10-03T08:23:29.810Z,56.22
2018-10-03T08:26:01.971Z,55.49
2018-10-03T08:28:31.729Z,55.71
2018-10-03T08:31:10.366Z,55.37
2018-10-03T08:33:40.856Z,55.85
2018-10-03T08:36:12.086Z,56.09
2018-10-03T08:38:42.027Z,55.10
2018-10-03T08:41:12.633Z,54.92
2018-10-03T08:43:42.673Z,55.00
2018-10-03T08:46:13.220Z,55.25
2018-10-03T08:48:47.471Z,55.61
2018-10-03T08:51:18.635Z,55.97
2018-10-03T08:53:49.545Z,54.91
2018-10-03T08:56:20.551Z,54.95
2018-10-03T08:58:53.345Z,55.44
2018-10-03T09:01:24.767Z,55.74
2018-10-03T09:03:58.062Z,55.73
2018-10-03T09:06:33.145Z,54.63
2018-10-03T09:15:17.200Z,55.36
2018-10-03T09:17:47.003Z,56.12
2018-10-03T09:20:21.503Z,56.33
2018-10-03T09:22:51.105Z,56.21
2018-10-03T09:25:23.868Z,56.12
2018-10-03T09:27:55.150Z,54.83
2018-10-03T09:30:25.349Z,54.44
2018-10-03T09:32:56.390Z,52.66
2018-10-03T09:35:26.343Z,52.36
2018-10-03T09:37:56.242Z,52.29
2018-10-03T09:40:25.770Z,52.99
2018-10-03T09:42:56.719Z,52.56
2018-10-03T09:45:27.287Z,52.50
2018-10-03T09:47:58.153Z,51.71
2018-10-03T09:50:28.590Z,50.66
2018-10-03T09:52:58.743Z,49.92
2018-10-03T09:55:34.574Z,50.28
2018-10-03T09:58:05.523Z,48.64
2018-10-03T10:00:41.948Z,48.60
2018-10-03T10:03:13.274Z,49.77
2018-10-03T10:05:43.532Z,48.61
2018-10-03T10:08:14.081Z,49.15
2018-10-03T10:10:44.922Z,48.48
2018-10-03T10:13:15.836Z,47.24
2018-10-03T10:15:46.352Z,45.02
2018-10-03T10:18:16.917Z,44.92
2018-10-03T10:20:55.855Z,45.64
2018-10-03T10:23:27.813Z,44.88
2018-10-03T10:25:58.887Z,45.92
2018-10-03T10:28:31.382Z,43.86
2018-10-03T10:31:03.072Z,43.43
2018-10-03T10:33:36.988Z,43.54
2018-10-03T10:36:07.603Z,42.99
2018-10-03T10:38:38.952Z,43.19
2018-10-03T10:41:15.450Z,42.50
2018-10-03T10:43:45.807Z,42.19
2018-10-03T10:46:18.847Z,42.46
2018-10-03T10:48:50.097Z,43.59
2018-10-03T10:51:19.900Z,41.94
2018-10-03T10:53:49.890Z,41.78
2018-10-03T10:56:19.888Z,42.50
2018-10-03T10:58:49.651Z,42.68
2018-10-03T11:01:21.473Z,42.41
2018-10-03T11:03:51.889Z,43.50
2018-10-03T11:06:21.610Z,43.06
2018-10-03T11:08:51.843Z,42.98
2018-10-03T11:11:21.462Z,43.02
2018-10-03T11:13:53.506Z,43.45
2018-10-03T11:16:23.271Z,44.08
2018-10-03T11:18:54.657Z,43.23
2018-10-03T11:21:25.626Z,42.75
2018-10-03T11:23:56.356Z,42.71
2018-10-03T11:26:27.369Z,41.59
2018-10-03T11:28:56.976Z,41.79
2018-10-03T11:31:27.786Z,41.26
2018-10-03T11:33:58.145Z,41.10
2018-10-03T11:36:27.965Z,42.20
2018-10-03T11:38:58.881Z,43.08
2018-10-03T11:41:28.828Z,43.47
2018-10-03T11:43:58.745Z,43.99
2018-10-03T11:46:28.609Z,43.21
2018-10-03T11:48:58.497Z,41.85
2018-10-03T11:51:28.396Z,42.65
2018-10-03T11:54:03.713Z,41.58
2018-10-03T11:56:33.517Z,41.66
2018-10-03T11:59:03.584Z,41.77
2018-10-03T12:01:33.188Z,41.15
2018-10-03T12:04:03.679Z,41.15
2018-10-03T12:06:33.998Z,40.03
2018-10-03T12:09:06.228Z,40.77
2018-10-03T12:11:36.950Z,40.82
2018-10-03T12:14:08.475Z,40.92
2018-10-03T12:16:39.386Z,40.58
2018-10-03T12:19:10.722Z,40.82
2018-10-03T12:21:42.070Z,41.06
2018-10-03T12:24:13.059Z,41.52
2018-10-03T12:26:43.700Z,42.15
2018-10-03T12:29:14.063Z,42.43
2018-10-03T12:31:43.861Z,41.44
2018-10-03T12:34:16.317Z,41.90
2018-10-03T12:36:45.930Z,40.74
2018-10-03T12:39:15.978Z,40.63
2018-10-03T12:41:46.187Z,41.85
2018-10-03T12:44:16.137Z,42.32
2018-10-03T12:46:45.889Z,42.23
2018-10-03T12:49:16.573Z,42.67
2018-10-03T12:51:46.168Z,41.69
2018-10-03T12:54:15.985Z,40.46
2018-10-03T12:56:46.275Z,40.00
2018-10-03T12:59:16.500Z,39.48
2018-10-03T13:01:48.248Z,38.92
2018-10-03T13:04:18.240Z,39.42
2018-10-03T13:06:47.794Z,39.56
2018-10-03T13:09:17.457Z,39.62
2018-10-03T13:11:47.861Z,38.89
2018-10-03T13:14:20.049Z,40.09
2018-10-03T13:16:50.682Z,39.81
2018-10-03T13:19:20.814Z,39.34
2018-10-03T13:21:50.698Z,39.05
2018-10-03T13:24:20.958Z,39.17
2018-10-03T13:28:58.941Z,38.74
2018-10-03T13:31:29.441Z,39.44
2018-10-03T13:33:59.519Z,40.43
2018-10-03T13:36:29.403Z,40.33
2018-10-03T13:39:00.405Z,40.72
2018-10-03T13:41:30.911Z,41.31
2018-10-03T13:44:02.999Z,41.46
2018-10-03T13:46:34.662Z,41.13
2018-10-03T13:49:04.707Z,40.63
2018-10-03T13:51:34.846Z,41.50
2018-10-03T13:54:06.893Z,41.59
2018-10-03T13:56:43.663Z,41.11
2018-10-03T13:59:14.088Z,40.17
2018-10-03T14:01:45.309Z,40.64
2018-10-03T14:04:15.939Z,39.29
2018-10-03T14:06:46.841Z,39.81
2018-10-03T14:09:20.315Z,38.82
2018-10-03T14:11:53.876Z,38.47
2018-10-03T14:14:28.773Z,38.06
2018-10-03T14:17:06.755Z,36.64
2018-10-03T14:22:18.897Z,36.81
2018-10-03T14:24:56.769Z,36.37
2018-10-03T14:27:33.986Z,36.67
2018-10-03T14:30:06.672Z,36.62
2018-10-03T14:32:39.176Z,37.28
2018-10-03T14:35:11.011Z,38.30
2018-10-03T14:37:42.493Z,39.12
2018-10-03T14:40:18.937Z,38.41
2018-10-03T14:42:51.522Z,37.11
2018-10-03T14:45:22.422Z,37.98
2018-10-03T14:47:54.185Z,38.04
2018-10-03T14:50:23.910Z,38.41
2018-10-03T14:52:56.775Z,38.86
2018-10-03T14:55:27.405Z,38.56
2018-10-03T14:57:58.484Z,38.71
2018-10-03T15:00:33.674Z,38.18
2018-10-03T15:03:10.551Z,37.91
2018-10-03T15:05:44.762Z,37.87
2018-10-03T15:08:14.646Z,38.12
2018-10-03T15:10:55.766Z,38.64
2018-10-03T15:13:33.416Z,39.11
2018-10-03T15:16:09.161Z,38.89
2018-10-03T15:18:41.588Z,38.58
2018-10-03T15:21:33.109Z,39.11
2018-10-03T15:24:12.427Z,39.35
2018-10-03T15:26:47.824Z,39.21
2018-10-03T15:29:21.745Z,40.79
2018-10-03T15:31:57.527Z,40.66
2018-10-03T15:34:30.494Z,40.86
2018-10-03T15:37:02.793Z,40.19
2018-10-03T15:39:34.510Z,40.58
2018-10-03T15:42:08.216Z,41.36
2018-10-03T15:44:40.655Z,41.66
2018-10-03T15:47:11.118Z,41.80
2018-10-03T15:49:43.849Z,42.66
2018-10-03T15:52:14.053Z,42.86
2018-10-03T15:54:45.950Z,42.73
2018-10-03T15:57:16.081Z,43.02
2018-10-03T15:59:56.348Z,42.78
2018-10-03T16:02:37.622Z,43.52
2018-10-03T16:05:10.387Z,42.88
2018-10-03T16:07:41.581Z,43.50
2018-10-03T16:10:12.429Z,43.58
2018-10-03T16:12:43.575Z,43.56
2018-10-03T16:15:14.141Z,43.45
2018-10-03T16:17:45.256Z,43.68
2018-10-03T16:20:16.578Z,43.98
2018-10-03T16:22:47.032Z,44.41
2018-10-03T16:25:19.554Z,44.09
2018-10-03T16:27:56.860Z,44.38
2018-10-03T16:30:29.055Z,45.41
2018-10-03T16:33:02.777Z,45.81
2018-10-03T16:35:34.844Z,45.40
2018-10-03T16:38:08.570Z,46.51
2018-10-03T16:40:44.014Z,46.53
2018-10-03T16:43:16.856Z,46.85
2018-10-03T16:45:46.795Z,46.37
2018-10-03T16:48:18.555Z,46.59
2018-10-03T16:50:50.627Z,46.82
2018-10-03T16:53:22.830Z,46.98
2018-10-03T16:55:54.247Z,47.11
2018-10-03T16:58:23.995Z,47.08
2018-10-03T17:00:54.010Z,47.43
2018-10-03T17:03:24.255Z,46.85
2018-10-03T17:05:55.512Z,47.18
2018-10-03T17:08:31.048Z,47.99
2018-10-03T17:11:05.333Z,48.51
2018-10-03T17:13:35.686Z,48.53
2018-10-03T17:16:09.518Z,48.51
2018-10-03T17:18:41.274Z,48.65
2018-10-03T17:21:21.633Z,48.80
2018-10-03T17:23:53.369Z,49.14
2018-10-03T17:26:23.432Z,48.59
2018-10-03T17:28:53.704Z,49.34
2018-10-03T17:31:25.474Z,50.13
2018-10-03T17:34:05.502Z,49.84
2018-10-03T17:36:43.875Z,50.15
2018-10-03T17:39:26.329Z,50.48
2018-10-03T17:42:02.507Z,50.36
2018-10-03T17:44:32.641Z,51.03
2018-10-03T17:47:10.115Z,51.01
2018-10-03T17:49:42.833Z,51.88
2018-10-03T17:52:13.632Z,51.05
2018-10-03T17:54:47.960Z,51.17
2018-10-03T17:57:23.550Z,51.63
2018-10-03T17:59:57.887Z,51.33
2018-10-03T18:02:35.200Z,51.28
2018-10-03T18:05:07.439Z,51.82
2018-10-03T18:07:44.640Z,52.04
2018-10-03T18:10:32.585Z,51.67
2018-10-03T18:13:07.768Z,52.62
2018-10-03T18:15:41.175Z,52.96
2018-10-03T18:18:19.577Z,52.86
2018-10-03T18:20:55.176Z,53.32
2018-10-03T18:23:29.790Z,53.29
2018-10-03T18:26:01.433Z,53.33
2018-10-03T18:28:42.528Z,53.84
2018-10-03T18:31:13.179Z,53.69
2018-10-03T18:33:48.831Z,54.07
2018-10-03T18:36:20.161Z,53.82
2018-10-03T18:38:58.068Z,53.97
2018-10-03T18:41:30.258Z,54.24
2018-10-03T18:44:12.141Z,54.70
2018-10-03T18:46:47.277Z,55.09
2018-10-03T18:49:21.178Z,55.01
2018-10-03T18:52:03.902Z,55.36
2018-10-03T18:54:34.985Z,55.48
2018-10-03T18:57:15.848Z,55.47
2018-10-03T19:02:49.415Z,55.73
2018-10-03T19:05:21.342Z,55.52
2018-10-03T19:07:52.985Z,55.74
2018-10-03T19:10:29.524Z,56.07
2018-10-03T19:13:01.958Z,56.37
2018-10-03T19:15:36.619Z,56.45
2018-10-03T19:18:20.503Z,56.05
2018-10-03T19:21:00.300Z,55.75
2018-10-03T19:23:42.644Z,55.64
2018-10-03T19:26:28.534Z,55.69
2018-10-03T19:29:00.307Z,55.62
2018-10-03T19:31:37.750Z,55.41
2018-10-03T19:34:13.127Z,54.97
2018-10-03T19:36:47.596Z,54.99
2018-10-03T19:39:19.296Z,55.09
2018-10-03T19:41:53.355Z,54.36
2018-10-03T19:44:28.344Z,55.63
2018-10-03T19:47:02.989Z,54.99
2018-10-03T19:49:38.831Z,55.31
2018-10-03T19:52:13.726Z,55.69
2018-10-03T19:54:46.652Z,55.64
2018-10-03T19:57:18.573Z,55.93
2018-10-03T19:59:52.500Z,56.11
2018-10-03T20:02:29.921Z,56.63
2018-10-03T20:05:03.514Z,56.33
2018-10-03T20:07:46.168Z,56.96
2018-10-03T20:10:24.502Z,56.45
2018-10-03T20:13:01.627Z,56.16
2018-10-03T20:15:33.588Z,56.57
2018-10-03T20:18:08.888Z,57.16
2018-10-03T20:20:45.053Z,56.98
2018-10-03T20:23:25.303Z,57.20
2018-10-03T20:26:09.918Z,56.80
2018-10-03T20:28:46.999Z,57.49
2018-10-03T20:31:23.755Z,58.27
2018-10-03T20:33:58.895Z,58.29
2018-10-03T20:36:35.513Z,57.99
2018-10-03T20:39:23.111Z,58.25
2018-10-03T20:41:56.836Z,58.66
2018-10-03T20:44:29.999Z,59.06
2018-10-03T20:47:03.095Z,60.01
2018-10-03T20:49:39.620Z,59.60
2018-10-03T20:52:10.535Z,59.86
2018-10-03T20:58:04.900Z,60.02
2018-10-03T21:00:38.806Z,59.62
2018-10-03T21:08:39.235Z,60.65
2018-10-03T21:11:15.731Z,60.70
2018-10-03T21:13:47.688Z,60.03
2018-10-03T21:16:22.006Z,59.66
2018-10-03T21:18:56.629Z,60.60
2018-10-03T21:21:27.584Z,60.71
2018-10-03T21:24:00.855Z,60.46
2018-10-03T21:26:32.364Z,61.17
2018-10-03T21:29:05.410Z,60.57
2018-10-03T21:31:37.280Z,60.66
2018-10-03T21:34:10.456Z,61.35
2018-10-03T21:36:41.174Z,61.91
2018-10-03T21:39:22.047Z,62.02
2018-10-03T21:42:02.549Z,61.98
2018-10-03T21:44:35.561Z,61.43
2018-10-03T21:47:09.800Z,61.41
2018-10-03T21:49:45.270Z,61.85
2018-10-03T21:52:22.308Z,62.46
2018-10-03T21:55:00.059Z,61.96
2018-10-03T21:57:35.780Z,62.05
2018-10-03T22:00:15.688Z,62.16
2018-10-03T22:02:50.227Z,62.34
2018-10-03T22:05:25.766Z,62.78
2018-10-03T22:07:58.605Z,62.86
2018-10-03T22:10:36.148Z,63.15
2018-10-03T22:16:10.916Z,63.21
2018-10-03T22:18:41.607Z,63.49
2018-10-03T22:21:15.442Z,63.43
2018-10-03T22:23:49.651Z,64.08
2018-10-03T22:26:19.904Z,64.07
2018-10-03T22:28:50.471Z,64.38
2018-10-03T22:31:21.792Z,64.19
2018-10-03T22:33:53.066Z,64.25
2018-10-03T22:36:25.483Z,64.32
2018-10-03T22:38:57.269Z,64.54
2018-10-03T22:41:27.726Z,64.61
2018-10-03T22:43:58.477Z,65.29
2018-10-03T22:46:30.739Z,65.00
2018-10-03T22:49:02.282Z,64.80
2018-10-03T22:51:32.921Z,64.79
2018-10-03T22:54:03.911Z,65.67
2018-10-03T22:56:34.492Z,65.30
2018-10-03T22:59:09.551Z,65.03
2018-10-03T23:01:39.388Z,65.21
2018-10-03T23:04:09.851Z,65.20
2018-10-03T23:06:40.655Z,65.40
2018-10-03T23:09:12.535Z,65.51
2018-10-03T23:11:42.883Z,65.68
2018-10-03T23:15:38.744Z,65.94
2018-10-03T23:18:08.937Z,65.57
2018-10-03T23:20:40.125Z,65.61
2018-10-03T23:23:11.188Z,65.57
2018-10-03T23:25:40.852Z,65.72
2018-10-03T23:28:14.943Z,65.55
2018-10-03T23:30:44.927Z,64.97
2018-10-03T23:33:17.582Z,64.53
2018-10-03T23:35:47.805Z,64.73
2018-10-03T23:38:21.170Z,64.56
2018-10-03T23:40:52.949Z,64.45
2018-10-03T23:43:25.577Z,64.50
2018-10-03T23:45:56.821Z,64.73
2018-10-03T23:48:27.425Z,65.38
2018-10-03T23:51:00.352Z,65.06
2018-10-03T23:53:30.533Z,65.08
2018-10-03T23:56:01.197Z,65.14
2018-10-03T23:58:31.866Z,65.50
